Aeroporto :
LOGIN :

Iscrizione | Disclaimer

   EN    FR    IT 

 










Sommario :    VFR   VFR Marginale   IFR   IFR Intensivo   IFR Molto Intensivo
Visibilità : 
Base nubi : 
>= 8 km
>= 3000ft
5 / 8 km
1000 / 3000 ft
1500m / 5 km
500 / 1000 ft
800 / 1500m
200 / 500 ft
< 800m
< 200 ft
Simboli :   Temporali  Nebbia  Neve Forte  Precipitazioni Forti  Vento > 20 kt
SIGMETs :   Varie  Temporali  Ghiacco  Turbolenza  Onda orograficha  Ceneri Vulcaniche






- Altitudine del aeroporto : 3428 ft
- Codice IATA : ERH


GMFK - Moulay Ali Cherif Int.

ULTIMO METAR :
  • 190400Z 00000KT CAVOK 26/M17 Q1015 NOSIG

METARs OBSOLETI :
  • 190300Z 32002KT CAVOK 27/M16 Q1015 NOSIG
  • 190200Z 00000KT CAVOK 29/M15 Q1015 NOSIG
  • 190100Z 02003KT CAVOK 28/M11 Q1016 NOSIG
  • 190000Z 27003KT 220V330 CAVOK 31/M11 Q1016 NOSIG

TAF TAF GMFK
Valido dal 19 a 00 ore il 20 a 06 ore UTC


182300Z 1900/2006 19009KT 7000 NSC
BECMG 1912/1915 23020KT
TEMPO 1913/1919 23020G34KT
BECMG 1918/1922 36009KT



MetMap, La meteo Aeronautica in un colpo d'occhio ! - Copyright ORBIFLY Dicembre 2007 - Disclaimer

ORBIFLY MET'MAP TEAM :

Programmazione e sviluppo : Alexandra Zaïnal
Concezione : Baudouin d'Aumeries
Supporto tecnico e logistico : Manuel Goepfert
Aiuto : Marc-Olivier Méhu
Aiuto per la traduzione : Arnaldo La Scala




FONTI E CREDITI :

   NOAA